ADDS METAR Data INFO
IDs: Format: Raw Decoded Include TAF

Data at: 1940 UTC 17 Feb 2018

KBRD 171853Z AUTO 28010KT 10SM CLR M02/M11 A2985 RMK AO2 SLP127 T10171106
KBRD 171753Z AUTO 28008KT 10SM CLR M02/M10 A2985 RMK AO2 SLP129 T10221100 11022 21111 51009
KBRD 171653Z AUTO 26011KT 10SM FEW024 M04/M10 A2985 RMK AO2 SLP128 T10391100
KBRD 171553Z AUTO 23006KT 10SM CLR M06/M10 A2983 RMK AO2 SLP126 T10611100
KBRD 171453Z AUTO 23006KT 10SM CLR M09/M12 A2982 RMK AO2 SLP122 T10891117 53013
KBRD 171353Z AUTO 21004KT 9SM CLR M10/M12 A2980 RMK AO2 SLP117 T11001122
KBRD 171253Z AUTO 21005KT 10SM CLR M10/M13 A2978 RMK AO2 SLP109 T11001128
KBRD 171153Z AUTO 19005KT 10SM CLR M09/M12 A2978 RMK AO2 SLP108 T10941122 11083 21094 56007
KBRD 171053Z AUTO 20005KT 10SM CLR M09/M12 A2978 RMK AO2 SLP108 T10891117
KBRD 170953Z AUTO 23009KT 10SM SCT110 M08/M12 A2979 RMK AO2 SLP110 T10831117
KBRD 170853Z AUTO 21008KT 8SM FEW028 OVC095 M09/M12 A2980 RMK AO2 SLP115 T10891122 58015
KBRD 170753Z AUTO 20009KT 10SM BKN048 M09/M13 A2982 RMK AO2 SLP124 T10891133
KBRD 170653Z AUTO 20012KT 10SM CLR M09/M14 A2984 RMK AO2 SLP129 T10891139
KBRD 170553Z AUTO 19009KT 10SM BKN110 M09/M14 A2985 RMK AO2 SLP133 T10891144 11067 21089 410561222 58021
KBRD 170453Z AUTO 20012KT 10SM CLR M09/M15 A2988 RMK AO2 SLP143 T10891150
KBRD 170353Z AUTO 19012KT 10SM SCT120 M08/M16 A2989 RMK AO2 SLP151 T10831156
KBRD 170253Z AUTO 20014KT 10SM CLR M09/M16 A2991 RMK AO2 SLP160 T10891156 58018
KBRD 170153Z AUTO 18014KT 10SM CLR M08/M15 A2993 RMK AO2 SLP167 T10831150
KBRD 170053Z AUTO 19010KT 10SM CLR M07/M16 A2995 RMK AO2 SLP175 T10721156
KBRD 162353Z AUTO 18011KT 10SM CLR M07/M16 A2997 RMK AO2 SLP178 T10671156 11056 21100 58040
KBRD 162253Z AUTO 20010KT 10SM CLR M06/M15 A3001 RMK AO2 SLP193 T10561150
KBRD 162153Z AUTO 19013KT 10SM CLR M06/M16 A3005 RMK AO2 SLP205 T10611156
KBRD 162053Z AUTO 21015KT 10SM CLR M07/M16 A3009 RMK AO2 SLP219 T10671161 56032
KBRD 161953Z AUTO 20011G19KT 10SM CLR M08/M17 A3011 RMK AO2 SLP227 T10781167
KBRD 161853Z AUTO 19011KT 10SM CLR M09/M17 A3015 RMK AO2 SLP242 T10941172
KBRD 161753Z AUTO 24011KT 10SM CLR M10/M18 A3019 RMK AO2 SLP254 T11001183 11100 21222 58017
KBRD 161653Z AUTO 23008KT 10SM CLR M13/M19 A3021 RMK AO2 SLP263 T11281194
KBRD 161553Z AUTO 22011KT 10SM CLR M16/M21 A3023 RMK AO2 SLP269 T11561211
KBRD 161453Z AUTO 24007KT 9SM CLR M19/M23 A3024 RMK AO2 SLP272 T11891233 56007
KBRD 161353Z AUTO 21006KT 8SM CLR M21/M25 A3025 RMK AO2 SLP275 T12111250
KBRD 161253Z AUTO 24005KT 10SM CLR M22/M26 A3024 RMK AO2 SLP273 T12171256
KBRD 161153Z AUTO 23007KT 10SM CLR M22/M26 A3026 RMK AO2 SLP277 T12171256 11178 21217 54000
KBRD 161053Z AUTO 24008KT 10SM CLR M21/M26 A3026 RMK AO2 SLP279 T12111256
KBRD 160953Z AUTO 25007KT 10SM CLR M21/M26 A3025 RMK AO2 SLP274 T12061256
KBRD 160853Z AUTO 27005KT 10SM CLR M19/M25 A3026 RMK AO2 SLP275 T11941250 51005
KBRD 160753Z AUTO 30003KT 10SM CLR M19/M26 A3026 RMK AO2 SLP274 T11891256